Time;durP1;ratioP1;P1;durP2;ratioP2;P2;SDS_P1;SDS_P2;PMS_P1;PMS_P2;Temp;Humidity;BMP_temperature;BMP_pressure;BME280_temperature;BME280_humidity;BME280_pressure;Samples;Min_cycle;Max_cycle;Signal;HPM_P1;HPM_P2
2021/12/01 00:00:26;;;;;;;18.83;7.03;;;;;;;;;;5037352;28;20035;-59
2021/12/01 00:02:55;;;;;;;15.05;7.28;;;;;;;;;;5037456;28;20047;-59
2021/12/01 00:05:24;;;;;;;15.48;6.97;;;;;;;;;;5036154;28;21974;-59
2021/12/01 00:07:50;;;;;;;19.30;7.50;;;;;;;;;;5036809;28;20033;-59
2021/12/01 00:10:21;;;;;;;17.42;6.78;;;;;;;;;;5033136;28;20083;-58
2021/12/01 00:12:51;;;;;;;18.17;7.65;;;;;;;;;;5037158;28;20033;-59
2021/12/01 00:15:18;;;;;;;14.93;6.93;;;;;;;;;;5032008;28;20032;-59
2021/12/01 00:17:43;;;;;;;24.45;8.25;;;;;;;;;;5036169;28;20025;-59
2021/12/01 00:20:13;;;;;;;23.58;9.80;;;;;;;;;;5034536;28;20033;-58
2021/12/01 00:22:39;;;;;;;25.10;10.70;;;;;;;;;;5033884;28;20114;-59
2021/12/01 00:25:06;;;;;;;22.65;10.43;;;;;;;;;;5036374;28;20044;-59
2021/12/01 00:27:42;;;;;;;29.02;11.15;;;;;;;;;;5035197;28;20056;-58
2021/12/01 00:30:08;;;;;;;26.97;11.17;;;;;;;;;;5032701;28;20033;-59
2021/12/01 00:32:37;;;;;;;32.00;13.95;;;;;;;;;;5036476;28;20037;-59
2021/12/01 00:35:11;;;;;;;38.60;12.95;;;;;;;;;;5036521;28;20032;-58
2021/12/01 00:37:40;;;;;;;32.42;14.13;;;;;;;;;;5035323;28;20127;-58
2021/12/01 00:40:09;;;;;;;35.47;13.45;;;;;;;;;;5031955;28;20025;-57
2021/12/01 00:42:34;;;;;;;32.78;12.65;;;;;;;;;;5036294;28;20759;-58
2021/12/01 00:45:06;;;;;;;41.55;14.50;;;;;;;;;;5036115;28;20135;-59
2021/12/01 00:47:53;;;;;;;29.88;14.15;;;;;;;;;;5032460;28;20048;-58
2021/12/01 00:50:26;;;;;;;35.13;15.07;;;;;;;;;;5032645;28;20044;-59
2021/12/01 00:52:55;;;;;;;42.03;16.15;;;;;;;;;;5034515;28;20032;-59
2021/12/01 00:59:01;;;;;;;36.80;15.30;;;;;;;;;;5034893;28;21202;-59
2021/12/01 01:01:29;;;;;;;43.85;15.57;;;;;;;;;;5034911;28;21089;-58
2021/12/01 01:03:56;;;;;;;40.95;15.32;;;;;;;;;;5031596;28;20048;-58
2021/12/01 01:06:22;;;;;;;31.30;14.77;;;;;;;;;;5017981;28;20051;-58
2021/12/01 01:08:47;;;;;;;38.75;15.63;;;;;;;;;;5033195;28;20048;-59
2021/12/01 01:16:50;;;;;;;27.80;13.10;;;;;;;;;;5033914;28;20037;-58
2021/12/01 01:19:22;;;;;;;31.10;16.00;;;;;;;;;;5035203;28;20073;-59
2021/12/01 01:21:55;;;;;;;30.55;14.98;;;;;;;;;;5033159;28;20036;-58
2021/12/01 01:24:25;;;;;;;32.75;13.98;;;;;;;;;;5037740;28;20028;-56
2021/12/01 01:26:53;;;;;;;29.45;13.13;;;;;;;;;;5050165;28;20063;-57
2021/12/01 01:29:21;;;;;;;32.85;14.18;;;;;;;;;;5036941;28;20041;-58
2021/12/01 01:31:49;;;;;;;39.20;15.27;;;;;;;;;;5036683;28;20048;-59
2021/12/01 01:34:20;;;;;;;33.28;14.63;;;;;;;;;;5051803;28;20195;-59
2021/12/01 01:36:47;;;;;;;33.55;13.85;;;;;;;;;;5036466;28;20500;-60
2021/12/01 01:39:15;;;;;;;27.65;12.43;;;;;;;;;;5036384;28;20036;-58
2021/12/01 01:41:44;;;;;;;36.90;13.45;;;;;;;;;;5034500;28;20032;-58
2021/12/01 01:44:12;;;;;;;28.58;11.65;;;;;;;;;;5036361;28;20476;-58
2021/12/01 01:46:40;;;;;;;28.70;13.68;;;;;;;;;;5050868;28;20044;-58
2021/12/01 01:49:13;;;;;;;31.98;12.13;;;;;;;;;;5037359;28;20081;-58
2021/12/01 01:51:40;;;;;;;35.90;12.63;;;;;;;;;;5034951;28;20340;-57
2021/12/01 01:54:08;;;;;;;26.63;12.20;;;;;;;;;;5036628;28;20396;-57
2021/12/01 01:56:36;;;;;;;23.05;10.43;;;;;;;;;;5022195;28;20056;-59
2021/12/01 01:59:03;;;;;;;33.72;10.27;;;;;;;;;;5034288;28;20080;-59
2021/12/01 02:04:00;;;;;;;18.27;8.57;;;;;;;;;;4996865;28;1092907;-58
2021/12/01 02:06:27;;;;;;;21.45;7.65;;;;;;;;;;5038035;28;20063;-59
2021/12/01 02:08:55;;;;;;;15.45;7.15;;;;;;;;;;5037775;28;20103;-58
2021/12/01 02:11:24;;;;;;;15.52;6.70;;;;;;;;;;5032150;28;20039;-58
2021/12/01 02:13:50;;;;;;;16.50;5.97;;;;;;;;;;5039816;28;20083;-60
2021/12/01 02:16:16;;;;;;;21.02;6.10;;;;;;;;;;5036132;28;20046;-58
2021/12/01 02:18:44;;;;;;;21.40;6.18;;;;;;;;;;5051113;28;20048;-59
2021/12/01 02:21:15;;;;;;;14.18;5.13;;;;;;;;;;5042203;28;20084;-58
2021/12/01 02:23:44;;;;;;;16.70;5.07;;;;;;;;;;5034275;28;20035;-58
2021/12/01 02:26:10;;;;;;;16.65;5.80;;;;;;;;;;5033446;28;20033;-57
2021/12/01 02:28:38;;;;;;;15.35;4.95;;;;;;;;;;5038137;28;20071;-59
2021/12/01 02:31:07;;;;;;;12.07;4.07;;;;;;;;;;5034285;28;20032;-59
2021/12/01 02:33:37;;;;;;;7.10;2.75;;;;;;;;;;5035956;28;21236;-58
2021/12/01 02:36:06;;;;;;;10.80;3.00;;;;;;;;;;5032418;28;20044;-58
2021/12/01 02:38:34;;;;;;;7.80;1.83;;;;;;;;;;5038914;28;20041;-57
2021/12/01 02:41:04;;;;;;;3.95;1.15;;;;;;;;;;5050026;28;20032;-58
2021/12/01 02:43:31;;;;;;;6.72;1.52;;;;;;;;;;5038741;28;20032;-60
2021/12/01 02:45:56;;;;;;;1.77;0.82;;;;;;;;;;5020880;28;20052;-57
2021/12/01 02:48:22;;;;;;;5.68;1.35;;;;;;;;;;5037502;28;20721;-57
2021/12/01 02:50:48;;;;;;;13.05;1.60;;;;;;;;;;5024739;28;20613;-59
2021/12/01 02:53:16;;;;;;;8.00;1.80;;;;;;;;;;5037932;28;20293;-59
2021/12/01 02:55:52;;;;;;;18.75;2.42;;;;;;;;;;5022101;28;20088;-59
2021/12/01 02:58:18;;;;;;;12.68;2.75;;;;;;;;;;5035117;28;20041;-57
2021/12/01 03:00:49;;;;;;;12.93;2.60;;;;;;;;;;5023025;28;20091;-57
2021/12/01 03:03:17;;;;;;;6.20;1.67;;;;;;;;;;5041372;28;20051;-57
2021/12/01 03:05:48;;;;;;;12.35;2.97;;;;;;;;;;5036999;28;20040;-58
2021/12/01 03:08:19;;;;;;;8.35;2.00;;;;;;;;;;5034873;28;20032;-57
2021/12/01 03:10:50;;;;;;;5.28;1.67;;;;;;;;;;5035865;28;20304;-58
2021/12/01 03:13:17;;;;;;;9.25;1.48;;;;;;;;;;5036985;28;20395;-59
2021/12/01 03:15:42;;;;;;;4.72;1.65;;;;;;;;;;5036864;28;20040;-59
2021/12/01 03:18:11;;;;;;;7.43;1.55;;;;;;;;;;5031787;28;20025;-57
2021/12/01 03:20:46;;;;;;;11.43;1.77;;;;;;;;;;5036746;28;20029;-60
2021/12/01 03:23:12;;;;;;;5.22;1.67;;;;;;;;;;5038544;28;20110;-58
2021/12/01 03:25:45;;;;;;;16.75;1.58;;;;;;;;;;5038053;28;20147;-58
2021/12/01 03:28:13;;;;;;;11.65;1.52;;;;;;;;;;5034670;28;20526;-59
2021/12/01 03:30:44;;;;;;;4.80;1.70;;;;;;;;;;5049621;28;20450;-59
2021/12/01 03:33:11;;;;;;;15.48;3.00;;;;;;;;;;5034116;28;20043;-58
2021/12/01 03:35:40;;;;;;;8.45;1.83;;;;;;;;;;5034214;28;20105;-58
2021/12/01 03:38:08;;;;;;;6.68;1.35;;;;;;;;;;5033350;28;20036;-59
2021/12/01 03:40:36;;;;;;;8.23;1.38;;;;;;;;;;5031242;28;20028;-59
2021/12/01 03:43:05;;;;;;;10.70;1.73;;;;;;;;;;5033702;28;20032;-59
2021/12/01 03:45:33;;;;;;;20.98;2.35;;;;;;;;;;5034633;28;20115;-58
2021/12/01 03:47:59;;;;;;;10.30;2.00;;;;;;;;;;5032912;28;20974;-57
2021/12/01 03:50:27;;;;;;;8.57;2.03;;;;;;;;;;5032309;28;20397;-57
2021/12/01 03:52:55;;;;;;;13.98;2.08;;;;;;;;;;5030611;28;20082;-59
2021/12/01 03:55:20;;;;;;;17.60;2.30;;;;;;;;;;5032050;28;20047;-59
2021/12/01 03:57:48;;;;;;;19.00;2.13;;;;;;;;;;5049247;28;20041;-58
2021/12/01 04:00:14;;;;;;;20.02;2.55;;;;;;;;;;5034738;28;20144;-58
2021/12/01 04:02:45;;;;;;;23.58;2.97;;;;;;;;;;5031068;28;20028;-57
2021/12/01 04:05:16;;;;;;;14.05;2.20;;;;;;;;;;5036491;28;20059;-57
2021/12/01 04:07:42;;;;;;;33.78;2.85;;;;;;;;;;5035349;28;20032;-59
2021/12/01 04:10:13;;;;;;;24.20;2.92;;;;;;;;;;5019099;28;20043;-57
2021/12/01 04:12:39;;;;;;;18.17;2.47;;;;;;;;;;5039021;28;20075;-57
2021/12/01 04:15:07;;;;;;;20.23;2.90;;;;;;;;;;5035017;28;20182;-57
2021/12/01 04:17:35;;;;;;;26.13;3.28;;;;;;;;;;5018472;28;20040;-56
2021/12/01 04:20:03;;;;;;;22.92;4.47;;;;;;;;;;5038368;28;20039;-58
2021/12/01 04:22:34;;;;;;;30.73;4.68;;;;;;;;;;5018684;28;20166;-57
2021/12/01 04:25:02;;;;;;;20.63;4.55;;;;;;;;;;5023617;28;20024;-58
2021/12/01 04:27:30;;;;;;;10.73;3.83;;;;;;;;;;5035920;28;20085;-59
2021/12/01 04:29:56;;;;;;;26.15;4.95;;;;;;;;;;5035285;28;20025;-59
2021/12/01 04:32:24;;;;;;;11.93;3.42;;;;;;;;;;5002838;28;20040;-59
2021/12/01 04:34:49;;;;;;;17.05;4.25;;;;;;;;;;5020503;28;20453;-59
2021/12/01 04:37:15;;;;;;;29.48;4.68;;;;;;;;;;5035803;28;20036;-59
2021/12/01 04:39:43;;;;;;;9.20;3.75;;;;;;;;;;5022135;28;20033;-59
2021/12/01 04:42:10;;;;;;;11.00;3.50;;;;;;;;;;5023109;28;20103;-58
2021/12/01 04:44:38;;;;;;;12.10;4.00;;;;;;;;;;5037052;28;20032;-58
2021/12/01 04:47:08;;;;;;;9.05;3.05;;;;;;;;;;5022407;28;20037;-59
2021/12/01 04:49:37;;;;;;;6.65;3.50;;;;;;;;;;5038459;28;20033;-59
2021/12/01 04:52:03;;;;;;;15.32;3.40;;;;;;;;;;5038674;28;20040;-59
2021/12/01 04:54:31;;;;;;;8.48;2.53;;;;;;;;;;5037043;28;20037;-59
2021/12/01 04:56:59;;;;;;;8.50;2.35;;;;;;;;;;5020772;28;20041;-59
2021/12/01 04:59:27;;;;;;;13.48;2.42;;;;;;;;;;5020771;28;20041;-57
2021/12/01 05:01:53;;;;;;;2.50;1.98;;;;;;;;;;5017895;28;20079;-58
2021/12/01 05:04:22;;;;;;;8.25;2.75;;;;;;;;;;5036543;28;20158;-59
2021/12/01 05:06:52;;;;;;;7.75;2.83;;;;;;;;;;5032466;28;20100;-59
2021/12/01 05:09:20;;;;;;;9.15;2.80;;;;;;;;;;5035381;28;20155;-57
2021/12/01 05:11:48;;;;;;;7.00;2.42;;;;;;;;;;5034286;28;20028;-58
2021/12/01 05:14:16;;;;;;;3.08;2.28;;;;;;;;;;5034460;28;20040;-60
2021/12/01 05:16:44;;;;;;;3.38;2.38;;;;;;;;;;5048935;28;20044;-57
2021/12/01 05:19:10;;;;;;;3.90;2.17;;;;;;;;;;5036793;28;20056;-59
2021/12/01 05:21:35;;;;;;;3.22;2.03;;;;;;;;;;5034659;28;20117;-59
2021/12/01 05:24:03;;;;;;;3.30;1.98;;;;;;;;;;5033767;28;20040;-60
2021/12/01 05:26:32;;;;;;;3.72;2.65;;;;;;;;;;5034140;28;20025;-59
2021/12/01 05:28:57;;;;;;;2.92;1.58;;;;;;;;;;5034667;28;20044;-58
2021/12/01 05:31:23;;;;;;;3.03;1.83;;;;;;;;;;5050354;28;20123;-59
2021/12/01 05:33:48;;;;;;;2.05;1.60;;;;;;;;;;5021316;28;20032;-59
2021/12/01 05:36:16;;;;;;;2.00;1.10;;;;;;;;;;5036548;28;20025;-59
2021/12/01 05:38:42;;;;;;;5.93;1.90;;;;;;;;;;5035957;28;21132;-60
2021/12/01 05:41:10;;;;;;;3.22;2.22;;;;;;;;;;5033327;28;20041;-58
2021/12/01 05:43:35;;;;;;;6.43;2.40;;;;;;;;;;5034635;28;20044;-58
2021/12/01 05:46:06;;;;;;;2.58;1.70;;;;;;;;;;5036566;28;21874;-58
2021/12/01 05:48:32;;;;;;;1.80;1.52;;;;;;;;;;5042773;28;20036;-59
2021/12/01 05:50:58;;;;;;;4.82;3.15;;;;;;;;;;5035512;28;20082;-57
2021/12/01 05:53:26;;;;;;;2.30;1.95;;;;;;;;;;5038495;28;20094;-58
2021/12/01 05:55:52;;;;;;;4.63;2.45;;;;;;;;;;5043777;28;20061;-59
2021/12/01 05:58:18;;;;;;;6.47;2.58;;;;;;;;;;5037960;28;21183;-60
2021/12/01 06:00:43;;;;;;;4.20;2.75;;;;;;;;;;5038180;28;20082;-57
2021/12/01 06:03:14;;;;;;;6.50;3.63;;;;;;;;;;5043541;28;20680;-58
2021/12/01 06:05:39;;;;;;;6.43;2.50;;;;;;;;;;5037499;28;20040;-61
2021/12/01 06:08:05;;;;;;;6.10;2.80;;;;;;;;;;5021393;28;20051;-59
2021/12/01 06:10:33;;;;;;;6.32;3.45;;;;;;;;;;5037306;28;20029;-57
2021/12/01 06:13:01;;;;;;;6.65;2.95;;;;;;;;;;5042808;28;20036;-58
2021/12/01 06:15:32;;;;;;;12.55;3.72;;;;;;;;;;5043853;28;20040;-58
2021/12/01 06:17:58;;;;;;;7.13;3.35;;;;;;;;;;5041903;28;20124;-58
2021/12/01 06:20:23;;;;;;;6.80;3.20;;;;;;;;;;5027036;28;20236;-59
2021/12/01 06:22:52;;;;;;;6.13;2.97;;;;;;;;;;5042130;28;20036;-58
2021/12/01 06:25:23;;;;;;;5.85;3.30;;;;;;;;;;5040659;28;20076;-58
2021/12/01 06:27:48;;;;;;;6.97;4.00;;;;;;;;;;5054516;28;20515;-57
2021/12/01 06:30:16;;;;;;;4.80;2.92;;;;;;;;;;5036472;28;20029;-57
2021/12/01 06:32:44;;;;;;;7.28;3.72;;;;;;;;;;5036638;28;21135;-58
2021/12/01 06:35:09;;;;;;;5.50;2.78;;;;;;;;;;5021587;28;20039;-58
2021/12/01 06:37:35;;;;;;;7.50;3.60;;;;;;;;;;5038881;28;20044;-59
2021/12/01 06:40:00;;;;;;;5.57;2.78;;;;;;;;;;5038626;28;20031;-60
2021/12/01 06:42:35;;;;;;;4.82;3.03;;;;;;;;;;5037191;28;20032;-59
2021/12/01 06:45:03;;;;;;;9.82;3.08;;;;;;;;;;5036711;28;21958;-59
2021/12/01 06:47:29;;;;;;;9.13;2.72;;;;;;;;;;5026212;28;20039;-59
2021/12/01 06:49:56;;;;;;;3.95;2.53;;;;;;;;;;5037728;28;20204;-58
2021/12/01 06:52:27;;;;;;;6.90;3.13;;;;;;;;;;5038693;28;20502;-58
2021/12/01 06:54:57;;;;;;;6.55;3.83;;;;;;;;;;5033594;28;20139;-57
2021/12/01 06:57:24;;;;;;;5.68;3.17;;;;;;;;;;5035392;28;21051;-60
2021/12/01 06:59:54;;;;;;;4.43;2.85;;;;;;;;;;5052599;28;20074;-58
2021/12/01 07:02:22;;;;;;;4.80;3.13;;;;;;;;;;5038118;28;20028;-59
2021/12/01 07:04:47;;;;;;;4.22;2.90;;;;;;;;;;5033587;28;20249;-58
2021/12/01 07:07:17;;;;;;;2.95;1.92;;;;;;;;;;5037150;28;20186;-59
2021/12/01 07:09:49;;;;;;;8.40;3.63;;;;;;;;;;5018778;28;20036;-58
2021/12/01 07:12:17;;;;;;;7.47;4.15;;;;;;;;;;5043524;28;20033;-59
2021/12/01 07:14:43;;;;;;;4.88;2.70;;;;;;;;;;5053572;28;20033;-61
2021/12/01 07:17:08;;;;;;;5.35;2.95;;;;;;;;;;5036509;28;20040;-59
2021/12/01 07:19:34;;;;;;;6.38;3.97;;;;;;;;;;5038418;28;20037;-61
2021/12/01 07:22:03;;;;;;;7.82;4.50;;;;;;;;;;5035738;28;20511;-58
2021/12/01 07:24:35;;;;;;;8.13;4.75;;;;;;;;;;5034706;28;20059;-59
2021/12/01 07:27:01;;;;;;;8.07;5.00;;;;;;;;;;5043862;28;20476;-61
2021/12/01 07:29:30;;;;;;;9.48;5.00;;;;;;;;;;5017540;28;20048;-59
2021/12/01 07:31:58;;;;;;;7.82;4.45;;;;;;;;;;5036491;28;20040;-60
2021/12/01 07:34:26;;;;;;;8.90;5.18;;;;;;;;;;5036939;28;20041;-58
2021/12/01 07:36:53;;;;;;;9.23;3.60;;;;;;;;;;5037693;28;20041;-58
2021/12/01 07:39:23;;;;;;;10.98;4.20;;;;;;;;;;5037198;28;20072;-59
2021/12/01 07:41:52;;;;;;;7.53;3.97;;;;;;;;;;5036433;28;20542;-59
2021/12/01 07:44:20;;;;;;;8.85;5.40;;;;;;;;;;5036628;28;20032;-59
2021/12/01 07:46:48;;;;;;;17.67;4.72;;;;;;;;;;5034787;28;20662;-59
2021/12/01 07:49:19;;;;;;;14.32;4.65;;;;;;;;;;5035797;28;20568;-57
2021/12/01 07:51:44;;;;;;;12.10;6.40;;;;;;;;;;5037638;28;20029;-59
2021/12/01 07:54:09;;;;;;;12.25;5.53;;;;;;;;;;5036164;28;20045;-61
2021/12/01 07:56:37;;;;;;;15.20;5.60;;;;;;;;;;5033804;28;20503;-59
2021/12/01 07:59:07;;;;;;;10.82;4.75;;;;;;;;;;5035611;28;20429;-58
2021/12/01 08:01:38;;;;;;;14.93;5.43;;;;;;;;;;5035174;28;20684;-59
2021/12/01 08:04:04;;;;;;;12.98;5.22;;;;;;;;;;5036237;28;20048;-59
2021/12/01 08:06:32;;;;;;;8.93;4.82;;;;;;;;;;5051545;28;20438;-57
2021/12/01 08:09:00;;;;;;;12.93;5.80;;;;;;;;;;5038155;28;20051;-57
2021/12/01 08:11:56;;;;;;;13.60;5.75;;;;;;;;;;5035471;28;20036;-57
2021/12/01 08:14:24;;;;;;;12.65;4.53;;;;;;;;;;5036533;28;20044;-59
2021/12/01 08:16:51;;;;;;;11.40;5.03;;;;;;;;;;5035729;28;20959;-59
2021/12/01 08:19:21;;;;;;;10.05;4.65;;;;;;;;;;5035100;28;20028;-59
2021/12/01 08:21:50;;;;;;;13.10;5.68;;;;;;;;;;5035995;28;20025;-59
2021/12/01 08:24:20;;;;;;;12.70;5.10;;;;;;;;;;5034770;28;20036;-61
2021/12/01 08:26:49;;;;;;;12.60;5.45;;;;;;;;;;5034062;28;20052;-59
2021/12/01 08:29:19;;;;;;;10.45;5.20;;;;;;;;;;5037645;28;20210;-58
2021/12/01 08:31:47;;;;;;;10.73;5.05;;;;;;;;;;5035365;28;20036;-58
2021/12/01 08:34:15;;;;;;;10.98;3.47;;;;;;;;;;5034758;28;20049;-61
2021/12/01 08:36:46;;;;;;;6.93;3.83;;;;;;;;;;5036351;28;20029;-59
2021/12/01 08:39:16;;;;;;;4.30;2.67;;;;;;;;;;5018159;28;20040;-59
2021/12/01 08:41:47;;;;;;;9.77;1.80;;;;;;;;;;5015199;28;20045;-59
2021/12/01 08:44:15;;;;;;;3.60;1.58;;;;;;;;;;5035649;28;20484;-61
2021/12/01 08:46:41;;;;;;;12.50;1.35;;;;;;;;;;5039361;28;20407;-61
2021/12/01 08:49:07;;;;;;;12.25;1.50;;;;;;;;;;5036085;28;20037;-58
2021/12/01 08:51:33;;;;;;;8.15;1.35;;;;;;;;;;5035866;28;20037;-58
2021/12/01 08:54:00;;;;;;;9.05;1.50;;;;;;;;;;5038097;28;20185;-58
2021/12/01 08:56:28;;;;;;;20.27;2.10;;;;;;;;;;5034580;28;20028;-58
2021/12/01 08:58:56;;;;;;;15.10;2.53;;;;;;;;;;5034602;28;20063;-58
2021/12/01 09:01:22;;;;;;;15.45;1.65;;;;;;;;;;5033820;28;20029;-59
2021/12/01 09:03:50;;;;;;;5.85;1.40;;;;;;;;;;5033303;28;20048;-58
2021/12/01 09:06:18;;;;;;;19.17;1.45;;;;;;;;;;5017974;28;20041;-60
2021/12/01 09:08:51;;;;;;;8.70;1.80;;;;;;;;;;5036033;28;20029;-58
2021/12/01 09:11:16;;;;;;;8.65;0.88;;;;;;;;;;5037461;28;20047;-58
2021/12/01 09:13:49;;;;;;;11.85;1.35;;;;;;;;;;5033652;28;20555;-59
2021/12/01 09:16:14;;;;;;;11.65;1.35;;;;;;;;;;5030671;28;20050;-59
2021/12/01 09:18:40;;;;;;;9.65;1.40;;;;;;;;;;5033931;28;20412;-58
2021/12/01 09:21:09;;;;;;;4.88;1.30;;;;;;;;;;5033369;28;20021;-57
2021/12/01 09:23:37;;;;;;;10.07;1.23;;;;;;;;;;5032380;28;20068;-58
2021/12/01 09:26:05;;;;;;;6.30;0.95;;;;;;;;;;5031238;28;20028;-58
2021/12/01 09:28:33;;;;;;;9.63;1.15;;;;;;;;;;5035772;28;20036;-58
2021/12/01 09:31:01;;;;;;;5.00;0.70;;;;;;;;;;5035113;28;20051;-60
2021/12/01 09:33:28;;;;;;;7.25;1.17;;;;;;;;;;5044193;28;20825;-59
2021/12/01 09:35:53;;;;;;;8.18;1.00;;;;;;;;;;5039367;28;20036;-57
2021/12/01 09:38:20;;;;;;;11.07;1.25;;;;;;;;;;5039800;28;20999;-59
2021/12/01 09:40:51;;;;;;;8.43;1.02;;;;;;;;;;5038968;28;20029;-61
2021/12/01 09:43:17;;;;;;;5.72;1.10;;;;;;;;;;5052633;28;20064;-59
2021/12/01 09:45:45;;;;;;;13.77;0.73;;;;;;;;;;5039436;28;20049;-59
2021/12/01 09:48:13;;;;;;;3.53;0.90;;;;;;;;;;5033921;28;20036;-58
2021/12/01 09:50:39;;;;;;;4.22;0.80;;;;;;;;;;5040223;28;20506;-58
2021/12/01 09:53:04;;;;;;;4.82;0.93;;;;;;;;;;5036879;28;22387;-58
2021/12/01 09:55:32;;;;;;;7.65;0.57;;;;;;;;;;5037703;28;20024;-58
2021/12/01 09:58:11;;;;;;;9.45;1.08;;;;;;;;;;5037993;28;20029;-58
2021/12/01 10:00:37;;;;;;;11.23;0.95;;;;;;;;;;5034259;28;20181;-59
2021/12/01 10:03:05;;;;;;;9.50;1.25;;;;;;;;;;5053724;28;20033;-59
2021/12/01 10:05:45;;;;;;;9.80;1.73;;;;;;;;;;5038350;28;20561;-58
2021/12/01 10:08:16;;;;;;;18.55;1.33;;;;;;;;;;5036738;28;20051;-59
2021/12/01 10:10:56;;;;;;;4.68;1.08;;;;;;;;;;5035794;28;20033;-58
2021/12/01 10:13:27;;;;;;;14.52;1.55;;;;;;;;;;5037298;28;20029;-59
2021/12/01 10:15:54;;;;;;;13.93;1.75;;;;;;;;;;5036072;28;20143;-59
2021/12/01 10:18:22;;;;;;;15.95;2.05;;;;;;;;;;5036097;28;21896;-59
2021/12/01 10:21:08;;;;;;;23.92;2.10;;;;;;;;;;5035907;28;20037;-59
2021/12/01 10:23:35;;;;;;;12.13;1.77;;;;;;;;;;5030219;28;20043;-57
2021/12/01 10:26:21;;;;;;;15.63;1.83;;;;;;;;;;5031212;28;20086;-58
2021/12/01 10:28:49;;;;;;;14.93;2.25;;;;;;;;;;5033885;28;20060;-57
2021/12/01 10:31:30;;;;;;;13.68;1.75;;;;;;;;;;5031602;28;20029;-58
2021/12/01 10:34:11;;;;;;;12.85;1.58;;;;;;;;;;5049522;28;20041;-58
2021/12/01 10:36:39;;;;;;;11.50;1.27;;;;;;;;;;5036099;28;20898;-58
2021/12/01 10:39:05;;;;;;;14.10;1.27;;;;;;;;;;5039095;28;20078;-57
2021/12/01 10:41:42;;;;;;;19.98;1.95;;;;;;;;;;5034808;28;20025;-59
2021/12/01 10:44:14;;;;;;;13.80;1.30;;;;;;;;;;5031817;28;20029;-57
2021/12/01 10:46:50;;;;;;;7.15;1.60;;;;;;;;;;5035794;28;20040;-58
2021/12/01 10:49:18;;;;;;;12.43;1.58;;;;;;;;;;5045995;28;20123;-58
2021/12/01 10:51:46;;;;;;;17.20;2.30;;;;;;;;;;5036894;28;20032;-58
2021/12/01 10:54:13;;;;;;;10.02;1.58;;;;;;;;;;5036916;28;20043;-58
2021/12/01 10:56:39;;;;;;;10.60;1.40;;;;;;;;;;5035615;28;20028;-59
2021/12/01 10:59:12;;;;;;;7.70;1.23;;;;;;;;;;5036225;28;20039;-57
2021/12/01 11:01:40;;;;;;;16.50;1.55;;;;;;;;;;5036886;28;20527;-57
2021/12/01 11:04:06;;;;;;;8.15;1.75;;;;;;;;;;5035326;28;20132;-58
2021/12/01 11:06:37;;;;;;;11.57;1.35;;;;;;;;;;5034022;28;20036;-58
2021/12/01 11:09:05;;;;;;;13.43;1.58;;;;;;;;;;5035367;28;20071;-59
2021/12/01 11:11:42;;;;;;;12.95;1.33;;;;;;;;;;5037106;28;20043;-59
2021/12/01 11:14:14;;;;;;;13.10;1.67;;;;;;;;;;5037078;28;20037;-59
2021/12/01 11:16:43;;;;;;;11.02;1.15;;;;;;;;;;5036972;28;20804;-59
2021/12/01 11:19:11;;;;;;;22.65;1.65;;;;;;;;;;5027955;28;20088;-58
2021/12/01 11:21:38;;;;;;;18.90;2.25;;;;;;;;;;5035511;28;20127;-60
2021/12/01 11:24:08;;;;;;;25.77;2.03;;;;;;;;;;5037664;28;20079;-58
2021/12/01 11:26:36;;;;;;;15.63;1.73;;;;;;;;;;5034350;28;20029;-59
2021/12/01 11:29:06;;;;;;;14.65;2.25;;;;;;;;;;5037163;28;20044;-58
2021/12/01 11:31:39;;;;;;;15.65;2.42;;;;;;;;;;5035312;28;20543;-58
2021/12/01 11:34:08;;;;;;;20.98;2.80;;;;;;;;;;5043027;28;20121;-59
2021/12/01 11:36:39;;;;;;;19.75;2.33;;;;;;;;;;5036659;28;20583;-58
2021/12/01 11:39:06;;;;;;;18.10;2.25;;;;;;;;;;5052924;28;20032;-59
2021/12/01 11:41:41;;;;;;;20.20;2.65;;;;;;;;;;5034227;28;20047;-59
2021/12/01 11:44:07;;;;;;;;;;;;;;;;;;5037067;28;20644;-58
2021/12/01 11:46:35;;;;;;;14.45;2.20;;;;;;;;;;5034965;28;19989;-59
2021/12/01 11:49:06;;;;;;;17.77;3.22;;;;;;;;;;5033598;28;20029;-58
2021/12/01 11:51:38;;;;;;;24.38;3.17;;;;;;;;;;5036662;28;20044;-58
2021/12/01 11:54:12;;;;;;;21.27;2.40;;;;;;;;;;5032457;28;20036;-60
2021/12/01 11:57:03;;;;;;;23.33;3.47;;;;;;;;;;5037879;28;20039;-58
2021/12/01 11:59:36;;;;;;;17.80;2.53;;;;;;;;;;5011319;28;21391;-57
2021/12/01 12:02:20;;;;;;;29.70;2.58;;;;;;;;;;5033192;28;21087;-58
2021/12/01 12:04:46;;;;;;;28.60;3.22;;;;;;;;;;5032892;28;20056;-58
2021/12/01 12:07:16;;;;;;;21.08;2.50;;;;;;;;;;5017952;28;20036;-58
2021/12/01 12:09:41;;;;;;;19.50;2.67;;;;;;;;;;5031128;28;20479;-60
2021/12/01 12:12:13;;;;;;;11.77;1.85;;;;;;;;;;5047858;28;20044;-59
2021/12/01 12:14:41;;;;;;;25.95;2.67;;;;;;;;;;5035133;28;20659;-59
2021/12/01 12:17:18;;;;;;;20.05;2.10;;;;;;;;;;5033719;28;20036;-58
2021/12/01 12:19:53;;;;;;;;;;;;;;;;;;5034866;28;20120;-58
2021/12/01 12:22:27;;;;;;;12.00;1.92;;;;;;;;;;5035072;28;19920;-58
2021/12/01 12:24:54;;;;;;;21.30;2.65;;;;;;;;;;5049768;28;20131;-58
2021/12/01 12:27:29;;;;;;;21.40;2.60;;;;;;;;;;5015981;28;20028;-58
2021/12/01 12:29:58;;;;;;;19.70;2.35;;;;;;;;;;5046300;28;20086;-58
2021/12/01 12:32:29;;;;;;;11.25;2.20;;;;;;;;;;5031236;28;20041;-59
2021/12/01 12:34:56;;;;;;;10.95;1.35;;;;;;;;;;5019164;28;20043;-58
2021/12/01 12:37:26;;;;;;;13.05;2.45;;;;;;;;;;5031562;28;20065;-58
2021/12/01 12:39:55;;;;;;;16.90;2.15;;;;;;;;;;5030963;28;20553;-59
2021/12/01 12:42:22;;;;;;;18.08;2.03;;;;;;;;;;5032476;28;20060;-60
2021/12/01 12:44:48;;;;;;;13.75;2.13;;;;;;;;;;5030808;28;20388;-58
2021/12/01 12:47:30;;;;;;;18.35;2.55;;;;;;;;;;5049166;28;20056;-59
2021/12/01 12:50:00;;;;;;;18.02;2.10;;;;;;;;;;5047988;28;20621;-59
2021/12/01 12:52:25;;;;;;;14.52;1.23;;;;;;;;;;5031844;28;20684;-60
2021/12/01 12:55:06;;;;;;;16.08;1.83;;;;;;;;;;5032356;28;20033;-58
2021/12/01 12:57:58;;;;;;;19.42;2.17;;;;;;;;;;5033479;28;20029;-57
2021/12/01 13:00:33;;;;;;;16.10;1.58;;;;;;;;;;5034127;28;22417;-57
2021/12/01 13:03:19;;;;;;;13.55;1.50;;;;;;;;;;5033563;28;20025;-58
2021/12/01 13:05:45;;;;;;;20.38;2.10;;;;;;;;;;5034490;28;20053;-58
2021/12/01 13:08:46;;;;;;;11.90;1.60;;;;;;;;;;5027298;28;20626;-59
2021/12/01 13:11:13;;;;;;;20.73;1.77;;;;;;;;;;5013004;28;20044;-57
2021/12/01 13:13:42;;;;;;;18.30;2.38;;;;;;;;;;5039724;28;20125;-59
2021/12/01 13:16:12;;;;;;;20.17;2.22;;;;;;;;;;5037728;28;20032;-59
2021/12/01 13:18:40;;;;;;;10.90;2.08;;;;;;;;;;5037524;28;20028;-58
2021/12/01 13:21:09;;;;;;;11.65;1.65;;;;;;;;;;5038329;28;20024;-59
2021/12/01 13:23:47;;;;;;;6.93;1.05;;;;;;;;;;5036711;28;20160;-59
2021/12/01 13:26:19;;;;;;;17.38;1.60;;;;;;;;;;5041659;28;20032;-58
2021/12/01 13:28:47;;;;;;;11.75;1.40;;;;;;;;;;5039765;28;20488;-59
2021/12/01 13:31:13;;;;;;;11.13;2.10;;;;;;;;;;5038325;28;20048;-59
2021/12/01 13:34:00;;;;;;;15.38;1.75;;;;;;;;;;5040528;28;20488;-60
2021/12/01 13:36:29;;;;;;;16.27;2.53;;;;;;;;;;5038610;28;20041;-59
2021/12/01 13:38:56;;;;;;;12.30;1.20;;;;;;;;;;5040697;28;20082;-59
2021/12/01 13:41:22;;;;;;;8.23;1.52;;;;;;;;;;5036962;28;20052;-58
2021/12/01 13:43:47;;;;;;;11.90;1.48;;;;;;;;;;5040526;28;20021;-58
2021/12/01 13:46:18;;;;;;;10.13;1.40;;;;;;;;;;5037649;28;20303;-58
2021/12/01 13:48:54;;;;;;;10.35;1.52;;;;;;;;;;5037152;28;20607;-58
2021/12/01 13:51:25;;;;;;;12.40;1.55;;;;;;;;;;5041785;28;20024;-59
2021/12/01 13:53:53;;;;;;;6.75;1.25;;;;;;;;;;5039375;28;20037;-57
2021/12/01 13:56:28;;;;;;;8.65;1.30;;;;;;;;;;5036142;28;20790;-58
2021/12/01 13:58:56;;;;;;;;;;;;;;;;;;5038636;28;20041;-57
2021/12/01 14:01:24;;;;;;;11.88;1.98;;;;;;;;;;5052835;28;21791;-59
2021/12/01 14:04:02;;;;;;;9.57;1.23;;;;;;;;;;5035610;28;20597;-58
2021/12/01 14:06:31;;;;;;;11.32;0.73;;;;;;;;;;5036348;28;20037;-58
2021/12/01 14:09:23;;;;;;;9.68;1.83;;;;;;;;;;5040121;28;20044;-57
2021/12/01 14:11:50;;;;;;;7.63;1.48;;;;;;;;;;5023195;28;20127;-57
2021/12/01 14:14:21;;;;;;;11.43;1.25;;;;;;;;;;5032754;28;20063;-58
2021/12/01 14:16:48;;;;;;;6.53;1.40;;;;;;;;;;5035621;28;20037;-59
2021/12/01 14:19:15;;;;;;;14.82;1.55;;;;;;;;;;5036733;28;20060;-57
2021/12/01 14:21:45;;;;;;;11.70;1.52;;;;;;;;;;5036755;28;20047;-56
2021/12/01 14:24:18;;;;;;;10.90;1.40;;;;;;;;;;5038369;28;20060;-58
2021/12/01 14:26:54;;;;;;;10.73;1.75;;;;;;;;;;5034330;28;20036;-59
2021/12/01 14:29:22;;;;;;;15.77;1.60;;;;;;;;;;5039862;28;20151;-60
2021/12/01 14:31:58;;;;;;;5.60;1.23;;;;;;;;;;5019267;28;20032;-59
2021/12/01 14:34:30;;;;;;;18.92;1.70;;;;;;;;;;5040631;28;20036;-57
2021/12/01 14:36:56;;;;;;;10.15;1.70;;;;;;;;;;5038967;28;20151;-57
2021/12/01 14:39:25;;;;;;;8.20;0.82;;;;;;;;;;5034914;28;20041;-58
2021/12/01 14:41:52;;;;;;;14.45;1.35;;;;;;;;;;5040396;28;20124;-56
2021/12/01 14:44:24;;;;;;;22.85;1.80;;;;;;;;;;5035625;28;20035;-57
2021/12/01 14:46:56;;;;;;;14.68;1.48;;;;;;;;;;5036921;28;20362;-57
2021/12/01 14:49:25;;;;;;;6.30;1.48;;;;;;;;;;5035600;28;20029;-57
2021/12/01 14:51:55;;;;;;;19.83;1.70;;;;;;;;;;5033867;28;20168;-58
2021/12/01 14:54:25;;;;;;;12.45;1.73;;;;;;;;;;5030446;28;20045;-57
2021/12/01 14:57:12;;;;;;;17.42;1.75;;;;;;;;;;5035054;28;20110;-58